Time;durP1;ratioP1;P1;durP2;ratioP2;P2;SDS_P1;SDS_P2;PMS_P1;PMS_P2;Temp;Humidity;BMP_temperature;BMP_pressure;BME280_temperature;BME280_humidity;BME280_pressure;Samples;Min_cycle;Max_cycle;Signal;HPM_P1;HPM_P2
2021/10/01 00:01:06;;;;;;;6.20;2.55;;;12.60;73.70;;;;;;4985961;28;20478;-74
2021/10/01 00:03:32;;;;;;;6.47;2.28;;;12.60;74.10;;;;;;4987159;28;20044;-73
2021/10/01 00:05:58;;;;;;;10.90;2.78;;;12.60;73.80;;;;;;4984796;28;20022;-73
2021/10/01 00:08:23;;;;;;;10.77;2.70;;;12.60;73.70;;;;;;4986921;28;20042;-73
2021/10/01 00:10:49;;;;;;;8.10;3.10;;;12.60;73.90;;;;;;4987484;28;20057;-75
2021/10/01 00:13:15;;;;;;;7.68;2.22;;;12.60;73.80;;;;;;4978513;28;20077;-73
2021/10/01 00:15:41;;;;;;;9.85;2.45;;;12.70;73.30;;;;;;4982298;28;20109;-76
2021/10/01 00:18:07;;;;;;;10.43;2.58;;;12.60;73.20;;;;;;4982173;28;20030;-74
2021/10/01 00:20:33;;;;;;;8.15;2.25;;;12.60;73.40;;;;;;4987302;28;20381;-73
2021/10/01 00:22:58;;;;;;;7.07;2.10;;;12.60;73.60;;;;;;4979529;28;20034;-73
2021/10/01 00:25:24;;;;;;;7.53;2.28;;;12.60;73.50;;;;;;4994182;28;20483;-73
2021/10/01 00:27:50;;;;;;;9.27;2.30;;;12.60;73.50;;;;;;4977631;28;20038;-74
2021/10/01 00:30:15;;;;;;;8.80;2.25;;;12.60;74.00;;;;;;4983086;28;20096;-73
2021/10/01 00:32:41;;;;;;;8.57;2.30;;;12.50;73.80;;;;;;4994116;28;20399;-73
2021/10/01 00:35:07;;;;;;;7.13;2.47;;;12.40;74.10;;;;;;4986125;28;20453;-73
2021/10/01 00:37:33;;;;;;;7.88;2.60;;;12.40;74.30;;;;;;4988373;28;20027;-73
2021/10/01 00:39:58;;;;;;;7.53;2.28;;;12.40;74.20;;;;;;4984172;28;20375;-73
2021/10/01 00:42:24;;;;;;;8.63;2.17;;;12.40;74.20;;;;;;4985963;28;20026;-74
2021/10/01 00:44:50;;;;;;;8.05;2.35;;;12.40;74.30;;;;;;4991276;28;20492;-73
2021/10/01 00:47:16;;;;;;;6.78;2.20;;;12.40;74.30;;;;;;4990248;28;20088;-75
2021/10/01 00:49:41;;;;;;;7.75;2.78;;;12.40;74.30;;;;;;4979602;28;20034;-73
2021/10/01 00:52:08;;;;;;;7.75;2.05;;;12.50;74.30;;;;;;4980156;28;20367;-74
2021/10/01 00:54:35;;;;;;;10.07;2.63;;;12.40;74.50;;;;;;5001943;28;20425;-73
2021/10/01 00:57:01;;;;;;;6.47;2.05;;;12.30;74.50;;;;;;5008084;28;20065;-74
2021/10/01 00:59:28;;;;;;;8.07;2.20;;;12.30;74.40;;;;;;5009706;28;20034;-73
2021/10/01 01:01:53;;;;;;;8.95;2.40;;;12.30;74.60;;;;;;5008058;28;20034;-74
2021/10/01 01:04:19;;;;;;;9.70;2.72;;;12.30;74.80;;;;;;5007821;28;20033;-73
2021/10/01 01:07:00;;;;;;;10.30;2.60;;;12.30;74.70;;;;;;5006575;28;20490;-73
2021/10/01 01:09:31;;;;;;;5.68;2.35;;;12.30;74.70;;;;;;5006818;28;20041;-73
2021/10/01 01:12:21;;;;;;;9.70;2.38;;;12.30;74.60;;;;;;5017185;28;20029;-73
2021/10/01 01:15:16;;;;;;;10.25;2.30;;;12.40;74.60;;;;;;5014431;28;20103;-74
2021/10/01 01:17:50;;;;;;;10.73;2.20;;;12.40;74.60;;;;;;5009533;28;20038;-73
2021/10/01 01:20:18;;;;;;;8.73;2.45;;;12.40;74.50;;;;;;5006773;28;20134;-73
2021/10/01 01:23:08;;;;;;;5.82;2.00;;;12.40;74.60;;;;;;5009441;28;20061;-73
2021/10/01 01:25:48;;;;;;;8.55;2.10;;;12.30;74.70;;;;;;4983249;28;20038;-73
2021/10/01 01:28:29;;;;;;;8.77;2.00;;;12.30;74.80;;;;;;4986053;28;20069;-73
2021/10/01 01:30:59;;;;;;;7.90;2.38;;;12.40;74.90;;;;;;4987640;28;20030;-73
2021/10/01 01:33:27;;;;;;;7.40;2.28;;;12.30;75.00;;;;;;4988941;28;20027;-73
2021/10/01 01:35:58;;;;;;;8.02;2.05;;;12.30;75.20;;;;;;4992247;28;20038;-73
2021/10/01 01:38:38;;;;;;;9.20;2.83;;;12.30;75.10;;;;;;4985887;28;20108;-73
2021/10/01 01:41:06;;;;;;;7.43;2.00;;;12.30;75.40;;;;;;4987320;28;20474;-73
2021/10/01 01:43:33;;;;;;;5.05;2.08;;;12.20;75.50;;;;;;4989609;28;20126;-74
2021/10/01 01:46:01;;;;;;;6.85;2.25;;;12.20;75.30;;;;;;4991465;28;20038;-73
2021/10/01 01:48:27;;;;;;;8.25;2.58;;;12.30;75.50;;;;;;4988281;28;20048;-75
2021/10/01 01:50:55;;;;;;;6.03;2.10;;;12.20;75.50;;;;;;4991494;28;20581;-73
2021/10/01 01:53:21;;;;;;;9.95;2.28;;;12.20;75.50;;;;;;4991541;28;20030;-73
2021/10/01 01:55:47;;;;;;;8.55;2.95;;;12.20;75.70;;;;;;4988661;28;20034;-73
2021/10/01 01:58:15;;;;;;;8.68;2.60;;;12.20;75.70;;;;;;4984667;28;20062;-73
2021/10/01 02:00:41;;;;;;;7.45;2.47;;;12.10;75.80;;;;;;4987640;28;20037;-74
2021/10/01 02:03:07;;;;;;;6.65;2.20;;;12.20;75.80;;;;;;4991308;28;20026;-74
2021/10/01 02:05:34;;;;;;;5.78;2.00;;;12.20;75.70;;;;;;4991040;28;20470;-73
2021/10/01 02:08:02;;;;;;;7.43;2.47;;;12.30;75.60;;;;;;4984467;28;20035;-71
2021/10/01 02:10:28;;;;;;;10.13;2.65;;;12.20;75.50;;;;;;4982404;28;20041;-72
2021/10/01 02:12:57;;;;;;;7.93;2.55;;;12.20;75.40;;;;;;4988785;28;20038;-72
2021/10/01 02:15:25;;;;;;;8.40;2.42;;;12.20;75.50;;;;;;4986672;28;20071;-71
2021/10/01 02:17:55;;;;;;;7.93;2.28;;;12.10;75.50;;;;;;4988109;28;20031;-72
2021/10/01 02:20:21;;;;;;;9.90;2.60;;;12.20;75.70;;;;;;4989844;28;20380;-72
2021/10/01 02:22:48;;;;;;;8.82;2.20;;;12.20;75.50;;;;;;4988597;28;20065;-72
2021/10/01 02:28:03;;;;;;;7.47;2.25;;;12.20;75.50;;;;;;4990623;28;20052;-73
2021/10/01 02:30:31;;;;;;;6.53;2.55;;;12.30;75.40;;;;;;4989993;28;20741;-72
2021/10/01 02:33:11;;;;;;;12.35;2.60;;;12.30;75.50;;;;;;4989440;28;20367;-74
2021/10/01 02:35:37;;;;;;;8.52;2.88;;;12.30;75.50;;;;;;4985482;28;20034;-73
2021/10/01 02:38:03;;;;;;;8.65;3.03;;;12.30;75.20;;;;;;4988401;28;20045;-73
2021/10/01 02:40:28;;;;;;;9.05;2.85;;;12.40;75.10;;;;;;4988606;28;20030;-72
2021/10/01 02:42:54;;;;;;;7.15;2.67;;;12.50;75.00;;;;;;4990374;28;20026;-72
2021/10/01 02:45:20;;;;;;;8.30;2.33;;;12.40;75.00;;;;;;4980435;28;20069;-72
2021/10/01 02:47:46;;;;;;;9.73;3.03;;;12.40;75.10;;;;;;4983072;28;20070;-73
2021/10/01 02:50:20;;;;;;;10.95;3.00;;;12.40;75.00;;;;;;4988392;28;20126;-73
2021/10/01 02:52:56;;;;;;;8.82;3.38;;;12.40;75.00;;;;;;4988999;28;20141;-73
2021/10/01 02:55:30;;;;;;;10.05;2.60;;;12.50;74.70;;;;;;4984724;28;20438;-71
2021/10/01 02:58:20;;;;;;;7.43;2.35;;;12.50;74.40;;;;;;4989037;28;20030;-72
2021/10/01 03:00:47;;;;;;;5.85;2.03;;;12.60;74.50;;;;;;5003822;28;20116;-71
2021/10/01 03:03:21;;;;;;;8.05;2.80;;;12.60;74.40;;;;;;4998770;28;20367;-72
2021/10/01 03:05:49;;;;;;;10.30;2.67;;;12.50;74.40;;;;;;5010070;28;20041;-71
2021/10/01 03:08:17;;;;;;;8.05;2.78;;;12.50;74.40;;;;;;4997312;28;20033;-71
2021/10/01 03:10:46;;;;;;;7.28;2.45;;;12.40;74.40;;;;;;5004229;28;20060;-71
2021/10/01 03:13:14;;;;;;;8.45;2.60;;;12.40;74.60;;;;;;5003157;28;20072;-75
2021/10/01 03:15:41;;;;;;;10.40;2.50;;;12.30;74.70;;;;;;5022006;28;20375;-71
2021/10/01 03:18:07;;;;;;;7.88;2.55;;;12.30;74.70;;;;;;5007009;28;20034;-73
2021/10/01 03:20:33;;;;;;;7.18;2.30;;;12.20;75.00;;;;;;4995211;28;20113;-73
2021/10/01 03:23:00;;;;;;;11.13;2.67;;;12.20;75.10;;;;;;5003256;28;20321;-71
2021/10/01 03:25:27;;;;;;;8.80;2.60;;;12.10;75.30;;;;;;5005572;28;20075;-71
2021/10/01 03:27:53;;;;;;;7.43;2.58;;;12.10;75.40;;;;;;5007148;28;20046;-72
2021/10/01 03:30:19;;;;;;;7.18;2.70;;;12.10;75.50;;;;;;5007162;28;20036;-71
2021/10/01 03:32:46;;;;;;;8.20;2.30;;;12.10;75.50;;;;;;5006555;28;20147;-72
2021/10/01 03:35:12;;;;;;;6.35;2.63;;;12.10;75.70;;;;;;5007556;28;20026;-72
2021/10/01 03:37:39;;;;;;;8.90;2.50;;;12.00;75.90;;;;;;5003914;28;20113;-73
2021/10/01 03:40:10;;;;;;;8.40;2.60;;;12.00;75.90;;;;;;5005808;28;20096;-72
2021/10/01 03:42:37;;;;;;;7.78;2.45;;;12.00;76.10;;;;;;5002837;28;20045;-72
2021/10/01 03:45:05;;;;;;;9.13;2.88;;;11.90;76.00;;;;;;5006583;28;20064;-75
2021/10/01 03:47:30;;;;;;;8.68;3.13;;;11.90;76.00;;;;;;5001922;28;20513;-73
2021/10/01 03:49:56;;;;;;;8.55;2.45;;;12.00;75.90;;;;;;5006444;28;20045;-77
2021/10/01 03:52:22;;;;;;;8.07;2.70;;;12.00;75.90;;;;;;5006386;28;20056;-72
2021/10/01 03:54:50;;;;;;;9.43;2.70;;;12.00;75.80;;;;;;5009501;28;20030;-74
2021/10/01 03:57:16;;;;;;;9.77;2.53;;;12.00;75.90;;;;;;5002340;28;20026;-72
2021/10/01 03:59:42;;;;;;;8.57;2.60;;;12.10;76.00;;;;;;5005912;28;20540;-72
2021/10/01 04:02:07;;;;;;;9.30;2.72;;;12.10;75.80;;;;;;5003333;28;20030;-73
2021/10/01 04:04:33;;;;;;;9.30;2.63;;;12.10;75.70;;;;;;5004320;28;20081;-72
2021/10/01 04:07:00;;;;;;;6.43;2.65;;;12.10;75.80;;;;;;5004423;28;20038;-72
2021/10/01 04:09:26;;;;;;;10.35;2.67;;;12.10;75.70;;;;;;4994445;28;20502;-72
2021/10/01 04:11:53;;;;;;;9.93;2.88;;;12.10;75.70;;;;;;4983364;28;20053;-72
2021/10/01 04:14:21;;;;;;;7.63;2.45;;;12.10;75.70;;;;;;4976424;28;20734;-73
2021/10/01 04:16:46;;;;;;;7.78;2.50;;;12.10;75.70;;;;;;4977780;28;20039;-73
2021/10/01 04:19:12;;;;;;;8.15;2.47;;;12.10;75.70;;;;;;4979524;28;20047;-71
2021/10/01 04:21:37;;;;;;;7.28;2.30;;;12.10;75.70;;;;;;4983941;28;20089;-72
2021/10/01 04:24:03;;;;;;;9.45;2.60;;;12.10;75.70;;;;;;4984185;28;20040;-72
2021/10/01 04:26:29;;;;;;;8.63;3.03;;;12.10;75.60;;;;;;4972927;28;20067;-72
2021/10/01 04:28:55;;;;;;;7.97;2.33;;;12.10;75.60;;;;;;4979577;28;20034;-72
2021/10/01 04:31:20;;;;;;;7.70;2.42;;;12.10;75.50;;;;;;4980419;28;20065;-71
2021/10/01 04:33:46;;;;;;;11.98;2.50;;;12.10;75.40;;;;;;4979036;28;20027;-72
2021/10/01 04:36:12;;;;;;;6.68;2.35;;;12.10;75.40;;;;;;4987242;28;20030;-72
2021/10/01 04:38:39;;;;;;;9.52;2.55;;;12.10;75.30;;;;;;4984164;28;20077;-72
2021/10/01 04:41:05;;;;;;;11.02;2.55;;;12.10;75.10;;;;;;4980025;28;20027;-72
2021/10/01 04:43:30;;;;;;;8.95;2.38;;;12.10;75.30;;;;;;4975599;28;20035;-72
2021/10/01 04:45:56;;;;;;;6.82;2.35;;;12.10;75.10;;;;;;4981250;28;20480;-75
2021/10/01 04:48:22;;;;;;;8.30;2.30;;;12.10;75.00;;;;;;4984263;28;20026;-72
2021/10/01 04:50:48;;;;;;;8.52;2.55;;;12.10;75.00;;;;;;4979463;28;20041;-75
2021/10/01 04:53:14;;;;;;;12.57;2.97;;;12.10;74.80;;;;;;4983577;28;20366;-73
2021/10/01 04:55:40;;;;;;;6.57;2.40;;;12.10;74.90;;;;;;4977811;28;20035;-73
2021/10/01 04:58:06;;;;;;;7.15;2.33;;;12.10;74.90;;;;;;4981729;28;20042;-74
2021/10/01 05:00:33;;;;;;;5.85;2.35;;;12.10;75.00;;;;;;4978390;28;20030;-72
2021/10/01 05:02:59;;;;;;;10.65;2.55;;;12.10;74.90;;;;;;4983827;28;20076;-72
2021/10/01 05:05:26;;;;;;;7.03;2.10;;;12.10;75.00;;;;;;4981684;28;20109;-72
2021/10/01 05:07:51;;;;;;;7.22;2.30;;;12.10;75.10;;;;;;4978770;28;20104;-72
2021/10/01 05:10:17;;;;;;;9.82;2.42;;;12.10;75.10;;;;;;4975589;28;20031;-72
2021/10/01 05:12:43;;;;;;;5.97;2.42;;;12.10;75.10;;;;;;4977869;28;20030;-75
2021/10/01 05:15:10;;;;;;;9.82;2.78;;;12.10;75.10;;;;;;4979186;28;20121;-76
2021/10/01 05:17:38;;;;;;;8.68;2.60;;;12.00;75.20;;;;;;4981197;28;20101;-76
2021/10/01 05:20:06;;;;;;;8.52;2.13;;;12.00;75.30;;;;;;4982189;28;20129;-73
2021/10/01 05:22:32;;;;;;;7.53;2.30;;;12.00;75.40;;;;;;4978640;28;20130;-75
2021/10/01 05:24:58;;;;;;;6.90;2.17;;;12.00;75.60;;;;;;4983095;28;20394;-74
2021/10/01 05:27:24;;;;;;;6.60;2.10;;;12.00;75.70;;;;;;4972640;28;20528;-72
2021/10/01 05:29:50;;;;;;;7.88;2.38;;;12.00;75.70;;;;;;4990230;28;20035;-72
2021/10/01 05:32:15;;;;;;;7.78;2.50;;;12.00;75.70;;;;;;4975407;28;20041;-72
2021/10/01 05:34:41;;;;;;;11.35;2.97;;;12.10;75.70;;;;;;4980797;28;20050;-72
2021/10/01 05:37:07;;;;;;;8.50;2.70;;;12.10;75.50;;;;;;4974283;28;20035;-71
2021/10/01 05:39:33;;;;;;;6.63;1.88;;;12.10;75.50;;;;;;4985783;28;20050;-69
2021/10/01 05:41:59;;;;;;;13.18;2.72;;;12.10;75.50;;;;;;4976477;28;20134;-69
2021/10/01 05:44:25;;;;;;;6.93;2.47;;;12.10;75.70;;;;;;4981096;28;20034;-69
2021/10/01 05:46:51;;;;;;;5.95;2.40;;;12.10;75.70;;;;;;4982014;28;20046;-69
2021/10/01 05:49:23;;;;;;;7.82;2.60;;;12.10;75.80;;;;;;4981470;28;20117;-72
2021/10/01 05:51:51;;;;;;;8.40;2.53;;;12.10;75.90;;;;;;4979560;28;20157;-72
2021/10/01 05:54:21;;;;;;;7.53;2.33;;;12.10;75.80;;;;;;4976179;28;20121;-69
2021/10/01 05:56:49;;;;;;;8.18;2.47;;;12.10;75.90;;;;;;4983857;28;20069;-69
2021/10/01 05:59:15;;;;;;;8.75;2.65;;;12.10;75.80;;;;;;4985521;28;20039;-70
2021/10/01 06:01:41;;;;;;;7.88;2.50;;;12.10;75.70;;;;;;4982614;28;20394;-69
2021/10/01 06:04:07;;;;;;;6.10;2.40;;;12.10;75.70;;;;;;4985750;28;20022;-69
2021/10/01 06:06:33;;;;;;;7.28;2.55;;;12.10;75.80;;;;;;4986772;28;20027;-69
2021/10/01 06:08:58;;;;;;;6.57;2.60;;;12.10;75.90;;;;;;4987725;28;20065;-69
2021/10/01 06:11:24;;;;;;;6.85;2.28;;;12.10;75.90;;;;;;4985147;28;20514;-71
2021/10/01 06:13:50;;;;;;;6.28;2.35;;;12.10;75.70;;;;;;4985549;28;20054;-69
2021/10/01 06:16:16;;;;;;;7.88;2.88;;;12.20;76.00;;;;;;4985322;28;20061;-69
2021/10/01 06:18:41;;;;;;;8.32;2.63;;;12.20;75.80;;;;;;4991016;28;20045;-71
2021/10/01 06:21:07;;;;;;;8.20;3.05;;;12.30;76.10;;;;;;4986312;28;20673;-68
2021/10/01 06:23:35;;;;;;;8.77;2.55;;;12.30;75.80;;;;;;4985285;28;20041;-70
2021/10/01 06:26:03;;;;;;;9.30;2.83;;;12.40;75.50;;;;;;4980252;28;20104;-70
2021/10/01 06:28:29;;;;;;;5.50;2.10;;;12.40;75.50;;;;;;4986911;28;20034;-69
2021/10/01 06:30:58;;;;;;;7.97;2.65;;;12.30;75.70;;;;;;4989358;28;20050;-69
2021/10/01 06:33:25;;;;;;;6.68;2.28;;;12.40;75.80;;;;;;4987421;28;20050;-69
2021/10/01 06:35:51;;;;;;;8.00;2.30;;;12.40;75.90;;;;;;4981140;28;20035;-69
2021/10/01 06:38:16;;;;;;;6.68;2.05;;;12.40;76.00;;;;;;4985248;28;20137;-72
2021/10/01 06:40:42;;;;;;;7.25;2.08;;;12.40;76.10;;;;;;4991543;28;20039;-71
2021/10/01 06:43:10;;;;;;;8.95;2.47;;;12.50;76.00;;;;;;4987420;28;20038;-71
2021/10/01 06:45:37;;;;;;;8.63;2.28;;;12.50;76.00;;;;;;4987360;28;20085;-71
2021/10/01 08:19:57;;;;;;;10.23;2.50;;;14.20;74.50;;;;;;4987463;28;20129;-69
2021/10/01 08:22:23;;;;;;;11.98;2.80;;;14.30;75.20;;;;;;4986091;28;20521;-69
2021/10/01 08:24:49;;;;;;;9.77;2.80;;;14.30;75.10;;;;;;4987480;28;20110;-69
2021/10/01 08:27:15;;;;;;;7.90;2.28;;;14.30;75.20;;;;;;4987748;28;20129;-69
2021/10/01 08:29:41;;;;;;;8.73;2.20;;;14.40;75.30;;;;;;4983907;28;20048;-70
2021/10/01 08:32:07;;;;;;;9.70;2.35;;;14.30;75.30;;;;;;4978426;28;20031;-69
2021/10/01 08:34:37;;;;;;;8.77;2.20;;;14.30;75.10;;;;;;4975522;28;20031;-69
2021/10/01 08:37:04;;;;;;;8.27;2.55;;;14.40;75.10;;;;;;4977205;28;20077;-72
2021/10/01 08:39:30;;;;;;;7.88;2.20;;;14.40;74.70;;;;;;4978512;28;20486;-73
2021/10/01 08:41:56;;;;;;;8.82;2.20;;;14.50;74.70;;;;;;4984344;28;20039;-69
2021/10/01 08:44:27;;;;;;;11.07;2.60;;;14.60;74.30;;;;;;4977308;28;20458;-70
2021/10/01 08:46:54;;;;;;;8.55;2.15;;;14.70;74.00;;;;;;4981958;28;20066;-70
2021/10/01 08:49:20;;;;;;;6.28;1.80;;;14.70;74.00;;;;;;4978128;28;20129;-71
2021/10/01 08:51:46;;;;;;;7.90;2.03;;;14.70;73.90;;;;;;4979303;28;20134;-71
2021/10/01 08:54:12;;;;;;;15.00;2.55;;;14.90;74.10;;;;;;4975949;28;20538;-71
2021/10/01 08:56:37;;;;;;;10.93;2.47;;;15.00;73.80;;;;;;4978421;28;20038;-70
2021/10/01 08:59:03;;;;;;;9.85;2.65;;;15.10;73.80;;;;;;4979324;28;20038;-73
2021/10/01 09:01:29;;;;;;;8.15;2.30;;;15.00;73.80;;;;;;4978613;28;20038;-70
2021/10/01 09:03:55;;;;;;;7.03;1.98;;;15.00;73.80;;;;;;4979958;28;20053;-70
2021/10/01 09:06:21;;;;;;;10.43;2.40;;;15.10;74.50;;;;;;4978603;28;20034;-70
2021/10/01 09:08:54;;;;;;;7.57;2.15;;;15.20;75.10;;;;;;4979245;28;20479;-72
2021/10/01 09:11:35;;;;;;;11.43;2.50;;;15.20;75.00;;;;;;4976904;28;20034;-72
2021/10/01 09:14:09;;;;;;;10.57;2.10;;;15.30;74.80;;;;;;4978720;28;20034;-72
2021/10/01 09:16:37;;;;;;;10.38;1.92;;;15.50;73.80;;;;;;4977439;28;20038;-70
2021/10/01 09:19:04;;;;;;;11.02;2.28;;;15.70;72.80;;;;;;4979960;28;20043;-70
2021/10/01 09:21:39;;;;;;;7.18;2.40;;;16.00;71.90;;;;;;4981113;28;20117;-70
2021/10/01 09:24:07;;;;;;;10.55;2.38;;;16.20;70.90;;;;;;4979042;28;20088;-70
2021/10/01 09:26:34;;;;;;;9.40;2.25;;;16.40;69.70;;;;;;4981655;28;20121;-70
2021/10/01 09:29:07;;;;;;;10.43;2.50;;;16.40;69.60;;;;;;4989114;28;20077;-72
2021/10/01 09:31:45;;;;;;;8.27;2.20;;;16.50;69.20;;;;;;4990663;28;20034;-71
2021/10/01 09:34:13;;;;;;;6.63;2.08;;;16.50;69.90;;;;;;4976067;28;20038;-71
2021/10/01 09:36:40;;;;;;;8.50;2.05;;;16.60;69.80;;;;;;4978926;28;20027;-73
2021/10/01 09:39:07;;;;;;;11.02;2.45;;;16.50;68.90;;;;;;4978305;28;20046;-71
2021/10/01 09:41:36;;;;;;;8.95;2.17;;;16.40;69.50;;;;;;4975827;28;20038;-70
2021/10/01 09:44:11;;;;;;;7.43;2.13;;;16.60;69.20;;;;;;4979167;28;20738;-70
2021/10/01 09:46:41;;;;;;;8.57;2.45;;;16.60;69.00;;;;;;4978156;28;20034;-70
2021/10/01 09:49:08;;;;;;;10.55;2.17;;;16.70;69.00;;;;;;4979215;28;20578;-67
2021/10/01 09:51:36;;;;;;;12.32;2.33;;;16.80;68.30;;;;;;4990499;28;20040;-69
2021/10/01 09:54:11;;;;;;;9.02;2.47;;;16.80;68.50;;;;;;4981786;28;20038;-68
2021/10/01 09:56:37;;;;;;;7.45;2.17;;;16.80;68.40;;;;;;4983287;28;20038;-69
2021/10/01 09:59:04;;;;;;;7.30;2.03;;;16.70;68.60;;;;;;4982286;28;20058;-70
2021/10/01 10:01:30;;;;;;;9.93;2.17;;;16.70;68.50;;;;;;4982938;28;20453;-71
2021/10/01 10:03:56;;;;;;;7.63;2.15;;;16.60;68.70;;;;;;4983357;28;20118;-70
2021/10/01 10:06:22;;;;;;;9.77;2.15;;;16.60;68.90;;;;;;5002808;28;20547;-73
2021/10/01 10:08:47;;;;;;;7.80;2.20;;;16.70;69.30;;;;;;5003991;28;20042;-72
2021/10/01 10:11:20;;;;;;;8.60;1.95;;;16.70;69.00;;;;;;5000855;28;20033;-71
2021/10/01 10:13:50;;;;;;;8.43;2.38;;;16.80;69.30;;;;;;5006184;28;20044;-71
2021/10/01 10:16:20;;;;;;;7.05;2.08;;;16.80;69.30;;;;;;5000215;28;20128;-70
2021/10/01 10:18:48;;;;;;;8.23;2.17;;;16.90;68.80;;;;;;5001429;28;20058;-72
2021/10/01 10:21:14;;;;;;;9.23;2.20;;;17.00;69.10;;;;;;5003621;28;20036;-74
2021/10/01 10:23:40;;;;;;;10.13;3.45;;;17.00;69.20;;;;;;5010466;28;20041;-73
2021/10/01 10:26:07;;;;;;;7.75;1.92;;;17.10;69.70;;;;;;5011523;28;20191;-74
2021/10/01 10:28:34;;;;;;;7.18;2.13;;;17.00;69.10;;;;;;5017656;28;20517;-73
2021/10/01 10:31:00;;;;;;;6.68;2.10;;;17.10;69.00;;;;;;5017362;28;20121;-73
2021/10/01 10:33:41;;;;;;;8.05;2.15;;;17.20;69.10;;;;;;4999548;28;20133;-75
2021/10/01 10:36:26;;;;;;;5.95;1.77;;;17.10;69.10;;;;;;5002086;28;20132;-73
2021/10/01 10:38:52;;;;;;;5.78;2.00;;;17.10;69.10;;;;;;5007928;28;20121;-73
2021/10/01 10:41:22;;;;;;;6.60;1.70;;;17.10;68.80;;;;;;5005368;28;20043;-74
2021/10/01 10:43:49;;;;;;;8.05;2.10;;;17.00;68.90;;;;;;5001202;28;20037;-74
2021/10/01 10:46:33;;;;;;;10.75;2.15;;;17.00;69.50;;;;;;5001518;28;20100;-71
2021/10/01 10:49:14;;;;;;;5.35;1.90;;;16.90;69.80;;;;;;5007543;28;20038;-71
2021/10/01 10:52:01;;;;;;;6.78;2.35;;;16.90;70.10;;;;;;4999583;28;20038;-70
2021/10/01 10:54:30;;;;;;;8.65;2.30;;;16.80;70.10;;;;;;5005487;28;20733;-71
2021/10/01 10:57:17;;;;;;;7.75;2.53;;;16.80;70.00;;;;;;5003028;28;20368;-72
2021/10/01 10:59:58;;;;;;;10.30;2.40;;;16.70;70.30;;;;;;5000532;28;20066;-70
2021/10/01 11:02:33;;;;;;;9.43;2.67;;;16.60;70.50;;;;;;4999967;28;20059;-70
2021/10/01 11:05:28;;;;;;;7.28;2.05;;;16.60;71.00;;;;;;5019746;28;20500;-71
2021/10/01 11:07:53;;;;;;;;;;;16.60;71.50;;;;;;5013695;28;20049;-70
2021/10/01 11:10:37;;;;;;;5.78;1.85;;;16.40;71.40;;;;;;5003998;28;20004;-70
2021/10/01 11:13:18;;;;;;;6.43;2.25;;;16.50;73.10;;;;;;5004788;28;20110;-70
2021/10/01 11:16:09;;;;;;;6.85;2.10;;;16.50;73.70;;;;;;5000288;28;20049;-70
2021/10/01 11:18:47;;;;;;;7.50;2.30;;;16.50;73.60;;;;;;5000901;28;20030;-70
2021/10/01 11:21:25;;;;;;;8.82;2.10;;;16.60;73.40;;;;;;5007772;28;20120;-70
2021/10/01 11:24:01;;;;;;;8.32;2.10;;;16.60;72.90;;;;;;5003447;28;20080;-71
2021/10/01 11:26:50;;;;;;;8.85;2.08;;;16.50;72.60;;;;;;5000607;28;20069;-72
2021/10/01 11:29:19;;;;;;;6.53;1.80;;;16.60;73.00;;;;;;4983683;28;20398;-72
2021/10/01 11:31:45;;;;;;;13.07;2.95;;;16.80;73.00;;;;;;4983830;28;21606;-71
2021/10/01 11:34:11;;;;;;;7.72;1.83;;;16.80;72.70;;;;;;4986210;28;20121;-71
2021/10/01 11:36:40;;;;;;;7.30;1.80;;;16.80;72.40;;;;;;4986310;28;20489;-71
2021/10/01 11:39:14;;;;;;;9.63;2.28;;;16.90;71.90;;;;;;4980770;28;20125;-71
2021/10/01 11:41:41;;;;;;;7.03;1.92;;;16.90;71.90;;;;;;4981204;28;20042;-71
2021/10/01 11:44:09;;;;;;;10.65;2.45;;;16.80;72.30;;;;;;4980917;28;20057;-71
2021/10/01 11:46:41;;;;;;;8.65;1.90;;;16.70;72.30;;;;;;4985864;28;20042;-73
2021/10/01 11:49:34;;;;;;;10.15;2.15;;;16.70;72.70;;;;;;4987765;28;20069;-70
2021/10/01 11:52:09;;;;;;;7.13;1.80;;;16.80;72.70;;;;;;4991035;28;20121;-69
2021/10/01 11:54:35;;;;;;;9.65;2.20;;;16.90;72.40;;;;;;4979197;28;20067;-75
2021/10/01 11:57:05;;;;;;;7.90;2.03;;;17.00;72.30;;;;;;4987260;28;20070;-71
2021/10/01 12:00:02;;;;;;;9.02;2.15;;;17.00;72.90;;;;;;4985864;28;20034;-71
2021/10/01 12:02:39;;;;;;;8.82;2.22;;;17.10;72.60;;;;;;4978070;28;20039;-71
2021/10/01 12:05:32;;;;;;;4.95;1.88;;;17.20;72.10;;;;;;4986701;28;20030;-69
2021/10/01 12:08:04;;;;;;;6.68;2.05;;;17.20;71.80;;;;;;4978081;28;20042;-73
2021/10/01 12:10:40;;;;;;;7.70;1.90;;;17.10;72.00;;;;;;4999792;28;20084;-69
2021/10/01 12:13:13;;;;;;;12.52;2.63;;;17.10;72.20;;;;;;4999851;28;20446;-71
2021/10/01 12:16:04;;;;;;;10.10;2.22;;;16.90;72.20;;;;;;5000001;28;20548;-71
2021/10/01 12:18:54;;;;;;;8.88;2.10;;;16.90;72.80;;;;;;4979419;28;20490;-70
2021/10/01 12:21:25;;;;;;;10.73;2.10;;;17.00;72.60;;;;;;4981445;28;20034;-70
2021/10/01 12:24:10;;;;;;;6.40;1.90;;;16.90;72.50;;;;;;4977591;28;20070;-76
2021/10/01 12:26:38;;;;;;;9.52;2.53;;;16.90;72.60;;;;;;4980726;28;20082;-69
2021/10/01 12:29:25;;;;;;;6.60;1.98;;;16.90;72.80;;;;;;4979414;28;20084;-74
2021/10/01 12:31:55;;;;;;;7.57;2.00;;;16.80;72.60;;;;;;4978346;28;20049;-69
2021/10/01 12:34:27;;;;;;;9.38;2.38;;;16.70;74.10;;;;;;4982732;28;20074;-70
2021/10/01 12:37:07;;;;;;;12.27;2.50;;;16.60;76.20;;;;;;4987859;28;20037;-69
2021/10/01 12:39:35;;;;;;;9.35;3.30;;;16.40;78.80;;;;;;4984609;28;20049;-69
2021/10/01 12:42:06;;;;;;;8.95;2.85;;;16.20;80.30;;;;;;4982734;28;20042;-70
2021/10/01 12:44:38;;;;;;;11.23;3.30;;;16.00;81.50;;;;;;4985789;28;20093;-70
2021/10/01 12:47:14;;;;;;;8.90;2.67;;;15.80;82.60;;;;;;4983503;28;20034;-70
2021/10/01 12:49:41;;;;;;;10.02;3.05;;;15.80;83.20;;;;;;4977605;28;20049;-71
2021/10/01 12:52:08;;;;;;;10.23;3.40;;;15.60;83.80;;;;;;4977574;28;20030;-70
2021/10/01 12:55:01;;;;;;;8.32;3.58;;;15.60;84.40;;;;;;4980633;28;20043;-73
2021/10/01 12:57:32;;;;;;;9.55;3.30;;;15.60;84.70;;;;;;4978557;28;20389;-72
2021/10/01 13:00:01;;;;;;;8.48;3.15;;;15.60;85.20;;;;;;4980728;28;20121;-71
2021/10/01 13:02:40;;;;;;;9.05;3.22;;;15.60;85.00;;;;;;4977543;28;20528;-71
2021/10/01 13:05:28;;;;;;;10.95;3.17;;;15.60;85.50;;;;;;4979204;28;20034;-71
2021/10/01 13:07:57;;;;;;;11.15;3.55;;;15.60;85.50;;;;;;4986088;28;20359;-68
2021/10/01 13:10:38;;;;;;;10.50;3.80;;;15.50;85.50;;;;;;4975186;28;20049;-71
2021/10/01 13:13:13;;;;;;;7.25;3.10;;;15.60;85.50;;;;;;4978766;28;20092;-70
2021/10/01 13:15:52;;;;;;;14.13;3.63;;;15.60;85.70;;;;;;4979112;28;20034;-70
2021/10/01 13:18:35;;;;;;;9.30;3.20;;;15.70;85.30;;;;;;4979059;28;20081;-76
2021/10/01 13:21:15;;;;;;;11.55;3.63;;;15.60;85.20;;;;;;4985829;28;20101;-74
2021/10/01 13:24:02;;;;;;;12.50;3.00;;;15.50;85.40;;;;;;4984698;28;20058;-69
2021/10/01 13:26:42;;;;;;;11.23;4.07;;;15.50;85.00;;;;;;4986131;28;20042;-74
2021/10/01 13:29:12;;;;;;;9.82;3.00;;;15.50;84.90;;;;;;4980826;28;20046;-71
2021/10/01 13:31:44;;;;;;;14.75;3.22;;;15.50;84.60;;;;;;4984395;28;20450;-73
2021/10/01 13:34:14;;;;;;;8.50;2.80;;;15.50;85.20;;;;;;4980263;28;20638;-72
2021/10/01 13:36:41;;;;;;;12.23;3.20;;;15.50;85.30;;;;;;4987473;28;20034;-70
2021/10/01 13:39:07;;;;;;;10.00;3.00;;;15.50;85.30;;;;;;4986742;28;20057;-70
2021/10/01 13:41:33;;;;;;;10.32;3.40;;;15.50;85.40;;;;;;4989752;28;20040;-72
2021/10/01 13:43:59;;;;;;;8.73;3.17;;;15.50;85.30;;;;;;4987564;28;20121;-70
2021/10/01 13:46:25;;;;;;;8.93;3.72;;;15.50;85.40;;;;;;4983541;28;20042;-69
2021/10/01 13:48:52;;;;;;;8.35;2.92;;;15.50;85.40;;;;;;4985556;28;20050;-70
2021/10/01 13:51:18;;;;;;;10.65;3.55;;;15.40;85.60;;;;;;4989998;28;20674;-71
2021/10/01 13:53:45;;;;;;;9.50;3.25;;;15.40;85.80;;;;;;4990346;28;20022;-71
2021/10/01 13:56:10;;;;;;;9.18;3.30;;;15.40;85.80;;;;;;4991418;28;20460;-70
2021/10/01 13:58:36;;;;;;;9.50;3.70;;;15.40;86.00;;;;;;4990440;28;20029;-69
2021/10/01 14:01:03;;;;;;;11.30;3.90;;;15.40;86.30;;;;;;4987387;28;20470;-71
2021/10/01 14:03:29;;;;;;;7.60;3.10;;;15.40;86.50;;;;;;4988945;28;20038;-71
2021/10/01 14:05:56;;;;;;;9.35;3.13;;;15.30;86.60;;;;;;4981479;28;20088;-70
2021/10/01 14:08:22;;;;;;;10.32;2.80;;;15.40;86.50;;;;;;4981716;28;20117;-75
2021/10/01 14:10:48;;;;;;;8.90;3.53;;;15.30;86.60;;;;;;4985647;28;20035;-70
2021/10/01 14:13:15;;;;;;;8.63;3.40;;;15.30;86.70;;;;;;4985882;28;20471;-70
2021/10/01 14:15:43;;;;;;;9.55;3.67;;;15.20;86.80;;;;;;4989105;28;20105;-70
2021/10/01 14:18:10;;;;;;;10.35;3.55;;;15.10;87.00;;;;;;4983840;28;20065;-70
2021/10/01 14:20:37;;;;;;;8.02;3.25;;;15.10;87.00;;;;;;4987359;28;20050;-69
2021/10/01 14:23:04;;;;;;;11.02;3.83;;;15.20;87.30;;;;;;4989397;28;20034;-70
2021/10/01 14:25:30;;;;;;;8.23;3.10;;;15.20;87.50;;;;;;4988925;28;20112;-71
2021/10/01 14:27:56;;;;;;;9.23;3.42;;;15.30;87.30;;;;;;4990207;28;20098;-70
2021/10/01 14:30:28;;;;;;;10.63;4.03;;;15.30;87.40;;;;;;4990582;28;20037;-70
2021/10/01 14:32:55;;;;;;;10.15;3.78;;;15.40;87.40;;;;;;4986338;28;20459;-75